sensor_id;sensor_type;location;lat;lon;timestamp;P1;durP1;ratioP1;P2;durP2;ratioP2
34741;SDS011;20968;42.696;23.360;2023-03-23T00:01:25;44.53;;;23.75;;
34741;SDS011;20968;42.696;23.360;2023-03-23T00:03:55;41.80;;;23.10;;
34741;SDS011;20968;42.696;23.360;2023-03-23T00:06:24;44.65;;;24.00;;
34741;SDS011;20968;42.696;23.360;2023-03-23T00:08:52;47.63;;;23.13;;
34741;SDS011;20968;42.696;23.360;2023-03-23T00:11:25;45.25;;;22.88;;
34741;SDS011;20968;42.696;23.360;2023-03-23T00:13:54;45.70;;;23.17;;
34741;SDS011;20968;42.696;23.360;2023-03-23T00:16:22;44.42;;;23.10;;
34741;SDS011;20968;42.696;23.360;2023-03-23T00:19:06;39.67;;;22.42;;
34741;SDS011;20968;42.696;23.360;2023-03-23T00:21:34;42.60;;;23.42;;
34741;SDS011;20968;42.696;23.360;2023-03-23T00:24:05;46.50;;;23.80;;
34741;SDS011;20968;42.696;23.360;2023-03-23T00:26:33;46.92;;;25.00;;
34741;SDS011;20968;42.696;23.360;2023-03-23T00:29:01;55.25;;;30.83;;
34741;SDS011;20968;42.696;23.360;2023-03-23T00:31:30;54.20;;;28.70;;
34741;SDS011;20968;42.696;23.360;2023-03-23T00:34:00;63.38;;;30.52;;
34741;SDS011;20968;42.696;23.360;2023-03-23T00:36:29;50.88;;;25.35;;
34741;SDS011;20968;42.696;23.360;2023-03-23T00:38:56;64.03;;;30.88;;
34741;SDS011;20968;42.696;23.360;2023-03-23T00:41:26;68.40;;;30.38;;
34741;SDS011;20968;42.696;23.360;2023-03-23T00:43:54;71.00;;;33.22;;
34741;SDS011;20968;42.696;23.360;2023-03-23T00:46:20;111.47;;;47.03;;
34741;SDS011;20968;42.696;23.360;2023-03-23T00:48:47;67.35;;;33.80;;
34741;SDS011;20968;42.696;23.360;2023-03-23T00:51:13;64.68;;;32.25;;
34741;SDS011;20968;42.696;23.360;2023-03-23T00:53:39;58.42;;;28.80;;
34741;SDS011;20968;42.696;23.360;2023-03-23T00:56:05;54.25;;;27.83;;
34741;SDS011;20968;42.696;23.360;2023-03-23T00:58:32;56.13;;;27.50;;
34741;SDS011;20968;42.696;23.360;2023-03-23T01:00:58;50.78;;;26.95;;
34741;SDS011;20968;42.696;23.360;2023-03-23T01:03:23;62.88;;;26.25;;
34741;SDS011;20968;42.696;23.360;2023-03-23T01:05:51;52.85;;;25.70;;
34741;SDS011;20968;42.696;23.360;2023-03-23T01:08:18;43.30;;;23.02;;
34741;SDS011;20968;42.696;23.360;2023-03-23T01:10:47;43.25;;;22.17;;
34741;SDS011;20968;42.696;23.360;2023-03-23T01:13:13;50.80;;;25.25;;
34741;SDS011;20968;42.696;23.360;2023-03-23T01:15:40;51.03;;;26.15;;
34741;SDS011;20968;42.696;23.360;2023-03-23T01:18:06;45.75;;;24.48;;
34741;SDS011;20968;42.696;23.360;2023-03-23T01:20:32;54.22;;;25.90;;
34741;SDS011;20968;42.696;23.360;2023-03-23T01:22:58;56.85;;;27.08;;
34741;SDS011;20968;42.696;23.360;2023-03-23T01:25:32;67.03;;;30.58;;
34741;SDS011;20968;42.696;23.360;2023-03-23T01:28:00;59.40;;;28.90;;
34741;SDS011;20968;42.696;23.360;2023-03-23T01:30:25;59.78;;;28.10;;
34741;SDS011;20968;42.696;23.360;2023-03-23T01:32:51;50.88;;;24.85;;
34741;SDS011;20968;42.696;23.360;2023-03-23T01:35:17;60.28;;;28.40;;
34741;SDS011;20968;42.696;23.360;2023-03-23T01:37:43;62.13;;;27.95;;
34741;SDS011;20968;42.696;23.360;2023-03-23T01:40:09;61.75;;;26.15;;
34741;SDS011;20968;42.696;23.360;2023-03-23T01:42:36;51.72;;;23.95;;
34741;SDS011;20968;42.696;23.360;2023-03-23T01:47:46;50.05;;;24.92;;
34741;SDS011;20968;42.696;23.360;2023-03-23T01:50:25;50.70;;;24.75;;
34741;SDS011;20968;42.696;23.360;2023-03-23T01:52:53;51.05;;;26.38;;
34741;SDS011;20968;42.696;23.360;2023-03-23T01:55:22;51.05;;;23.63;;
34741;SDS011;20968;42.696;23.360;2023-03-23T01:57:52;49.65;;;26.08;;
34741;SDS011;20968;42.696;23.360;2023-03-23T02:00:18;51.95;;;25.17;;
34741;SDS011;20968;42.696;23.360;2023-03-23T02:02:46;53.20;;;24.90;;
34741;SDS011;20968;42.696;23.360;2023-03-23T02:05:14;45.30;;;23.73;;
34741;SDS011;20968;42.696;23.360;2023-03-23T02:07:46;46.35;;;22.40;;
34741;SDS011;20968;42.696;23.360;2023-03-23T02:10:13;50.22;;;25.13;;
34741;SDS011;20968;42.696;23.360;2023-03-23T02:12:38;42.40;;;22.83;;
34741;SDS011;20968;42.696;23.360;2023-03-23T02:15:04;45.75;;;24.30;;
34741;SDS011;20968;42.696;23.360;2023-03-23T02:17:51;54.22;;;24.05;;
34741;SDS011;20968;42.696;23.360;2023-03-23T02:20:38;40.28;;;22.27;;
34741;SDS011;20968;42.696;23.360;2023-03-23T02:28:16;49.30;;;22.90;;
34741;SDS011;20968;42.696;23.360;2023-03-23T02:34:04;45.65;;;22.75;;
34741;SDS011;20968;42.696;23.360;2023-03-23T02:39:05;46.22;;;24.63;;
34741;SDS011;20968;42.696;23.360;2023-03-23T02:41:39;42.30;;;21.98;;
34741;SDS011;20968;42.696;23.360;2023-03-23T02:44:10;44.03;;;23.00;;
34741;SDS011;20968;42.696;23.360;2023-03-23T02:46:38;41.80;;;20.98;;
34741;SDS011;20968;42.696;23.360;2023-03-23T02:49:05;31.55;;;18.02;;
34741;SDS011;20968;42.696;23.360;2023-03-23T02:51:33;35.92;;;19.77;;
34741;SDS011;20968;42.696;23.360;2023-03-23T02:54:00;29.83;;;15.57;;
34741;SDS011;20968;42.696;23.360;2023-03-23T02:56:27;28.90;;;15.88;;
34741;SDS011;20968;42.696;23.360;2023-03-23T02:58:54;27.65;;;14.18;;
34741;SDS011;20968;42.696;23.360;2023-03-23T03:03:54;20.42;;;11.70;;
34741;SDS011;20968;42.696;23.360;2023-03-23T03:12:34;19.33;;;11.93;;
34741;SDS011;20968;42.696;23.360;2023-03-23T03:17:51;16.77;;;9.90;;
34741;SDS011;20968;42.696;23.360;2023-03-23T03:20:30;16.63;;;9.93;;
34741;SDS011;20968;42.696;23.360;2023-03-23T03:22:57;16.05;;;8.48;;
34741;SDS011;20968;42.696;23.360;2023-03-23T03:25:25;15.55;;;9.10;;
34741;SDS011;20968;42.696;23.360;2023-03-23T03:27:54;16.23;;;9.88;;
34741;SDS011;20968;42.696;23.360;2023-03-23T03:30:23;16.92;;;10.70;;
34741;SDS011;20968;42.696;23.360;2023-03-23T03:32:53;16.50;;;10.55;;
34741;SDS011;20968;42.696;23.360;2023-03-23T03:35:22;16.60;;;10.18;;
34741;SDS011;20968;42.696;23.360;2023-03-23T03:37:49;18.98;;;9.38;;
34741;SDS011;20968;42.696;23.360;2023-03-23T03:40:16;16.88;;;9.55;;
34741;SDS011;20968;42.696;23.360;2023-03-23T03:42:44;19.20;;;11.02;;
34741;SDS011;20968;42.696;23.360;2023-03-23T03:45:14;21.23;;;11.23;;
34741;SDS011;20968;42.696;23.360;2023-03-23T03:47:42;18.85;;;10.52;;
34741;SDS011;20968;42.696;23.360;2023-03-23T03:50:08;19.98;;;11.57;;
34741;SDS011;20968;42.696;23.360;2023-03-23T03:52:34;35.60;;;14.90;;
34741;SDS011;20968;42.696;23.360;2023-03-23T03:55:00;22.42;;;11.90;;
34741;SDS011;20968;42.696;23.360;2023-03-23T03:57:25;21.05;;;12.45;;
34741;SDS011;20968;42.696;23.360;2023-03-23T03:59:51;19.67;;;10.20;;
34741;SDS011;20968;42.696;23.360;2023-03-23T04:02:17;18.30;;;10.57;;
34741;SDS011;20968;42.696;23.360;2023-03-23T04:04:48;17.95;;;10.68;;
34741;SDS011;20968;42.696;23.360;2023-03-23T04:07:14;18.65;;;12.02;;
34741;SDS011;20968;42.696;23.360;2023-03-23T04:09:42;23.45;;;11.55;;
34741;SDS011;20968;42.696;23.360;2023-03-23T04:12:08;17.08;;;10.88;;
34741;SDS011;20968;42.696;23.360;2023-03-23T04:14:33;18.30;;;11.95;;
34741;SDS011;20968;42.696;23.360;2023-03-23T04:16:59;21.65;;;11.43;;
34741;SDS011;20968;42.696;23.360;2023-03-23T04:19:25;21.45;;;11.68;;
34741;SDS011;20968;42.696;23.360;2023-03-23T04:21:53;20.35;;;11.80;;
34741;SDS011;20968;42.696;23.360;2023-03-23T04:24:20;26.08;;;11.82;;
34741;SDS011;20968;42.696;23.360;2023-03-23T04:26:46;24.08;;;12.63;;
34741;SDS011;20968;42.696;23.360;2023-03-23T04:29:12;23.80;;;12.88;;
34741;SDS011;20968;42.696;23.360;2023-03-23T04:31:38;22.08;;;12.32;;
34741;SDS011;20968;42.696;23.360;2023-03-23T04:34:04;21.55;;;11.38;;
34741;SDS011;20968;42.696;23.360;2023-03-23T04:36:30;17.92;;;10.38;;
34741;SDS011;20968;42.696;23.360;2023-03-23T04:38:58;24.75;;;11.65;;
34741;SDS011;20968;42.696;23.360;2023-03-23T04:41:25;18.98;;;11.27;;
34741;SDS011;20968;42.696;23.360;2023-03-23T04:43:51;22.30;;;10.75;;
34741;SDS011;20968;42.696;23.360;2023-03-23T04:46:18;23.88;;;11.57;;
34741;SDS011;20968;42.696;23.360;2023-03-23T04:48:46;18.58;;;10.05;;
34741;SDS011;20968;42.696;23.360;2023-03-23T04:51:13;15.52;;;9.02;;
34741;SDS011;20968;42.696;23.360;2023-03-23T04:53:38;19.80;;;10.38;;
34741;SDS011;20968;42.696;23.360;2023-03-23T04:56:04;21.10;;;12.18;;
34741;SDS011;20968;42.696;23.360;2023-03-23T04:58:29;18.92;;;10.45;;
34741;SDS011;20968;42.696;23.360;2023-03-23T05:00:59;18.20;;;10.02;;
34741;SDS011;20968;42.696;23.360;2023-03-23T05:03:29;17.58;;;10.68;;
34741;SDS011;20968;42.696;23.360;2023-03-23T05:05:54;15.57;;;9.98;;
34741;SDS011;20968;42.696;23.360;2023-03-23T05:08:20;26.08;;;10.82;;
34741;SDS011;20968;42.696;23.360;2023-03-23T05:10:51;25.55;;;13.68;;
34741;SDS011;20968;42.696;23.360;2023-03-23T05:13:17;33.58;;;13.95;;
34741;SDS011;20968;42.696;23.360;2023-03-23T05:15:43;25.15;;;14.30;;
34741;SDS011;20968;42.696;23.360;2023-03-23T05:18:08;22.17;;;10.05;;
34741;SDS011;20968;42.696;23.360;2023-03-23T05:20:35;33.92;;;15.07;;
34741;SDS011;20968;42.696;23.360;2023-03-23T05:23:01;25.27;;;13.73;;
34741;SDS011;20968;42.696;23.360;2023-03-23T05:25:26;25.13;;;13.18;;
34741;SDS011;20968;42.696;23.360;2023-03-23T05:27:51;25.70;;;12.68;;
34741;SDS011;20968;42.696;23.360;2023-03-23T05:30:18;19.08;;;11.30;;
34741;SDS011;20968;42.696;23.360;2023-03-23T05:32:47;22.88;;;12.68;;
34741;SDS011;20968;42.696;23.360;2023-03-23T05:35:16;26.25;;;14.48;;
34741;SDS011;20968;42.696;23.360;2023-03-23T05:37:43;26.48;;;14.30;;
34741;SDS011;20968;42.696;23.360;2023-03-23T05:40:10;35.63;;;17.58;;
34741;SDS011;20968;42.696;23.360;2023-03-23T05:42:37;34.08;;;18.25;;
34741;SDS011;20968;42.696;23.360;2023-03-23T05:45:08;28.52;;;14.60;;
34741;SDS011;20968;42.696;23.360;2023-03-23T05:47:37;36.38;;;16.25;;
34741;SDS011;20968;42.696;23.360;2023-03-23T05:50:08;36.20;;;16.75;;
34741;SDS011;20968;42.696;23.360;2023-03-23T05:52:34;38.42;;;20.33;;
34741;SDS011;20968;42.696;23.360;2023-03-23T05:55:01;31.75;;;15.18;;
34741;SDS011;20968;42.696;23.360;2023-03-23T05:57:28;61.55;;;32.10;;
34741;SDS011;20968;42.696;23.360;2023-03-23T05:59:55;46.42;;;24.45;;
34741;SDS011;20968;42.696;23.360;2023-03-23T06:02:22;38.50;;;19.67;;
34741;SDS011;20968;42.696;23.360;2023-03-23T06:04:49;47.45;;;20.00;;
34741;SDS011;20968;42.696;23.360;2023-03-23T06:07:15;47.28;;;21.00;;
34741;SDS011;20968;42.696;23.360;2023-03-23T06:10:01;37.95;;;19.02;;
34741;SDS011;20968;42.696;23.360;2023-03-23T06:12:26;43.10;;;22.60;;
34741;SDS011;20968;42.696;23.360;2023-03-23T06:14:52;51.85;;;27.65;;
34741;SDS011;20968;42.696;23.360;2023-03-23T06:17:18;41.38;;;22.80;;
34741;SDS011;20968;42.696;23.360;2023-03-23T06:19:44;49.50;;;25.15;;
34741;SDS011;20968;42.696;23.360;2023-03-23T06:22:16;36.13;;;20.95;;
34741;SDS011;20968;42.696;23.360;2023-03-23T06:24:42;43.30;;;22.88;;
34741;SDS011;20968;42.696;23.360;2023-03-23T06:27:08;40.50;;;22.75;;
34741;SDS011;20968;42.696;23.360;2023-03-23T06:29:34;44.10;;;24.42;;
34741;SDS011;20968;42.696;23.360;2023-03-23T06:32:00;36.55;;;19.35;;
34741;SDS011;20968;42.696;23.360;2023-03-23T06:34:27;42.22;;;20.40;;
34741;SDS011;20968;42.696;23.360;2023-03-23T06:36:54;36.33;;;21.20;;
34741;SDS011;20968;42.696;23.360;2023-03-23T06:39:20;38.30;;;20.40;;
34741;SDS011;20968;42.696;23.360;2023-03-23T06:41:47;33.33;;;17.65;;
34741;SDS011;20968;42.696;23.360;2023-03-23T06:44:16;41.17;;;22.17;;
34741;SDS011;20968;42.696;23.360;2023-03-23T06:46:42;40.58;;;20.25;;
34741;SDS011;20968;42.696;23.360;2023-03-23T06:49:11;35.33;;;18.55;;
34741;SDS011;20968;42.696;23.360;2023-03-23T06:51:36;38.20;;;17.42;;
34741;SDS011;20968;42.696;23.360;2023-03-23T06:54:03;34.45;;;18.20;;
34741;SDS011;20968;42.696;23.360;2023-03-23T06:56:29;31.92;;;18.83;;
34741;SDS011;20968;42.696;23.360;2023-03-23T06:58:55;39.15;;;18.75;;
34741;SDS011;20968;42.696;23.360;2023-03-23T07:01:20;29.80;;;17.77;;
34741;SDS011;20968;42.696;23.360;2023-03-23T07:03:47;36.00;;;17.75;;
34741;SDS011;20968;42.696;23.360;2023-03-23T07:06:13;34.08;;;19.45;;
34741;SDS011;20968;42.696;23.360;2023-03-23T07:08:39;31.10;;;17.52;;
34741;SDS011;20968;42.696;23.360;2023-03-23T07:11:04;31.60;;;18.67;;
34741;SDS011;20968;42.696;23.360;2023-03-23T07:13:30;35.10;;;19.35;;
34741;SDS011;20968;42.696;23.360;2023-03-23T07:15:56;32.33;;;18.45;;
34741;SDS011;20968;42.696;23.360;2023-03-23T07:18:22;35.60;;;19.38;;
34741;SDS011;20968;42.696;23.360;2023-03-23T07:20:48;33.55;;;17.55;;
34741;SDS011;20968;42.696;23.360;2023-03-23T07:23:14;30.20;;;17.20;;
34741;SDS011;20968;42.696;23.360;2023-03-23T07:25:40;28.35;;;16.17;;
34741;SDS011;20968;42.696;23.360;2023-03-23T07:28:06;30.65;;;16.60;;
34741;SDS011;20968;42.696;23.360;2023-03-23T07:30:32;29.85;;;16.50;;
34741;SDS011;20968;42.696;23.360;2023-03-23T07:32:57;29.67;;;17.35;;
34741;SDS011;20968;42.696;23.360;2023-03-23T07:35:23;28.17;;;15.55;;
34741;SDS011;20968;42.696;23.360;2023-03-23T07:37:49;30.67;;;15.73;;
34741;SDS011;20968;42.696;23.360;2023-03-23T07:40:17;29.52;;;15.70;;
34741;SDS011;20968;42.696;23.360;2023-03-23T07:42:46;22.88;;;14.88;;
34741;SDS011;20968;42.696;23.360;2023-03-23T07:45:17;27.83;;;15.32;;
34741;SDS011;20968;42.696;23.360;2023-03-23T07:47:42;33.42;;;16.40;;
34741;SDS011;20968;42.696;23.360;2023-03-23T07:50:08;30.38;;;17.27;;
34741;SDS011;20968;42.696;23.360;2023-03-23T07:52:34;30.90;;;18.55;;
34741;SDS011;20968;42.696;23.360;2023-03-23T07:55:01;31.27;;;18.55;;
34741;SDS011;20968;42.696;23.360;2023-03-23T07:57:28;32.90;;;17.27;;
34741;SDS011;20968;42.696;23.360;2023-03-23T07:59:55;31.65;;;18.33;;
34741;SDS011;20968;42.696;23.360;2023-03-23T08:02:21;34.92;;;18.58;;
34741;SDS011;20968;42.696;23.360;2023-03-23T08:04:48;40.30;;;19.35;;
34741;SDS011;20968;42.696;23.360;2023-03-23T08:07:16;34.65;;;18.83;;
34741;SDS011;20968;42.696;23.360;2023-03-23T08:09:45;45.65;;;19.85;;
34741;SDS011;20968;42.696;23.360;2023-03-23T08:12:11;36.58;;;21.08;;
34741;SDS011;20968;42.696;23.360;2023-03-23T08:14:37;38.10;;;21.50;;
34741;SDS011;20968;42.696;23.360;2023-03-23T08:17:13;34.72;;;18.80;;
34741;SDS011;20968;42.696;23.360;2023-03-23T08:19:42;37.00;;;20.65;;
34741;SDS011;20968;42.696;23.360;2023-03-23T08:22:08;39.45;;;20.65;;
34741;SDS011;20968;42.696;23.360;2023-03-23T08:24:33;30.67;;;18.27;;
34741;SDS011;20968;42.696;23.360;2023-03-23T08:26:59;28.50;;;18.50;;
34741;SDS011;20968;42.696;23.360;2023-03-23T08:29:30;34.70;;;20.48;;
34741;SDS011;20968;42.696;23.360;2023-03-23T08:31:59;28.30;;;16.23;;
34741;SDS011;20968;42.696;23.360;2023-03-23T08:34:33;29.95;;;17.45;;
34741;SDS011;20968;42.696;23.360;2023-03-23T08:36:59;30.35;;;18.45;;
34741;SDS011;20968;42.696;23.360;2023-03-23T08:39:27;28.88;;;16.33;;
34741;SDS011;20968;42.696;23.360;2023-03-23T08:42:02;33.85;;;18.05;;
34741;SDS011;20968;42.696;23.360;2023-03-23T08:44:28;26.15;;;16.20;;
34741;SDS011;20968;42.696;23.360;2023-03-23T08:46:54;26.23;;;15.43;;
34741;SDS011;20968;42.696;23.360;2023-03-23T08:49:19;24.77;;;13.50;;
34741;SDS011;20968;42.696;23.360;2023-03-23T08:51:45;24.73;;;15.20;;
34741;SDS011;20968;42.696;23.360;2023-03-23T08:54:11;20.55;;;12.73;;
34741;SDS011;20968;42.696;23.360;2023-03-23T08:56:42;20.30;;;9.63;;
34741;SDS011;20968;42.696;23.360;2023-03-23T08:59:11;20.35;;;11.27;;
34741;SDS011;20968;42.696;23.360;2023-03-23T09:08:22;21.90;;;13.00;;
34741;SDS011;20968;42.696;23.360;2023-03-23T09:16:35;14.48;;;9.38;;
34741;SDS011;20968;42.696;23.360;2023-03-23T09:19:45;9.98;;;6.10;;
34741;SDS011;20968;42.696;23.360;2023-03-23T09:22:34;11.57;;;6.55;;
34741;SDS011;20968;42.696;23.360;2023-03-23T09:24:59;8.98;;;5.20;;
34741;SDS011;20968;42.696;23.360;2023-03-23T09:30:59;13.00;;;6.10;;
34741;SDS011;20968;42.696;23.360;2023-03-23T09:33:25;9.88;;;6.78;;
34741;SDS011;20968;42.696;23.360;2023-03-23T09:48:11;7.93;;;5.13;;
34741;SDS011;20968;42.696;23.360;2023-03-23T09:54:54;6.40;;;4.38;;
34741;SDS011;20968;42.696;23.360;2023-03-23T10:00:26;6.53;;;4.65;;
34741;SDS011;20968;42.696;23.360;2023-03-23T10:06:28;8.73;;;4.85;;
34741;SDS011;20968;42.696;23.360;2023-03-23T10:08:56;15.90;;;6.68;;
34741;SDS011;20968;42.696;23.360;2023-03-23T10:11:45;6.47;;;5.50;;
34741;SDS011;20968;42.696;23.360;2023-03-23T10:19:51;10.48;;;6.30;;
34741;SDS011;20968;42.696;23.360;2023-03-23T10:25:19;12.27;;;6.95;;
34741;SDS011;20968;42.696;23.360;2023-03-23T10:27:58;11.20;;;6.03;;
34741;SDS011;20968;42.696;23.360;2023-03-23T10:30:53;8.15;;;5.40;;
34741;SDS011;20968;42.696;23.360;2023-03-23T10:33:36;9.30;;;5.53;;
34741;SDS011;20968;42.696;23.360;2023-03-23T10:38:59;8.60;;;5.32;;
34741;SDS011;20968;42.696;23.360;2023-03-23T10:41:30;6.50;;;4.85;;
34741;SDS011;20968;42.696;23.360;2023-03-23T10:44:26;7.20;;;4.55;;
34741;SDS011;20968;42.696;23.360;2023-03-23T10:46:59;9.33;;;5.43;;
34741;SDS011;20968;42.696;23.360;2023-03-23T10:49:36;9.02;;;5.03;;
34741;SDS011;20968;42.696;23.360;2023-03-23T10:52:15;7.53;;;4.43;;
34741;SDS011;20968;42.696;23.360;2023-03-23T10:54:54;7.63;;;5.45;;
34741;SDS011;20968;42.696;23.360;2023-03-23T10:57:26;6.45;;;4.60;;
34741;SDS011;20968;42.696;23.360;2023-03-23T10:59:59;8.13;;;5.40;;
34741;SDS011;20968;42.696;23.360;2023-03-23T11:02:31;6.70;;;4.65;;
34741;SDS011;20968;42.696;23.360;2023-03-23T11:05:21;8.20;;;5.47;;
34741;SDS011;20968;42.696;23.360;2023-03-23T11:07:57;6.70;;;5.00;;
34741;SDS011;20968;42.696;23.360;2023-03-23T11:10:26;7.88;;;4.93;;
34741;SDS011;20968;42.696;23.360;2023-03-23T11:13:02;5.72;;;4.20;;
34741;SDS011;20968;42.696;23.360;2023-03-23T11:15:30;6.65;;;4.70;;
34741;SDS011;20968;42.696;23.360;2023-03-23T11:18:03;12.52;;;4.82;;
34741;SDS011;20968;42.696;23.360;2023-03-23T11:20:34;6.72;;;4.68;;
34741;SDS011;20968;42.696;23.360;2023-03-23T11:23:10;16.33;;;5.68;;
34741;SDS011;20968;42.696;23.360;2023-03-23T11:29:10;8.00;;;4.82;;
34741;SDS011;20968;42.696;23.360;2023-03-23T11:31:46;8.82;;;4.68;;
34741;SDS011;20968;42.696;23.360;2023-03-23T11:34:23;7.30;;;4.45;;
34741;SDS011;20968;42.696;23.360;2023-03-23T11:36:57;5.90;;;4.72;;
34741;SDS011;20968;42.696;23.360;2023-03-23T11:42:19;9.18;;;4.47;;
34741;SDS011;20968;42.696;23.360;2023-03-23T11:45:07;6.28;;;5.00;;
34741;SDS011;20968;42.696;23.360;2023-03-23T11:53:45;4.97;;;3.97;;
34741;SDS011;20968;42.696;23.360;2023-03-23T11:56:26;6.90;;;4.38;;
34741;SDS011;20968;42.696;23.360;2023-03-23T11:59:37;9.75;;;5.22;;
34741;SDS011;20968;42.696;23.360;2023-03-23T12:14:07;5.50;;;4.10;;
34741;SDS011;20968;42.696;23.360;2023-03-23T12:22:24;5.05;;;4.25;;
34741;SDS011;20968;42.696;23.360;2023-03-23T12:51:35;7.93;;;4.80;;
34741;SDS011;20968;42.696;23.360;2023-03-23T12:54:23;5.13;;;3.63;;
34741;SDS011;20968;42.696;23.360;2023-03-23T12:59:45;7.93;;;5.40;;
34741;SDS011;20968;42.696;23.360;2023-03-23T13:02:35;7.35;;;4.70;;
34741;SDS011;20968;42.696;23.360;2023-03-23T13:05:05;6.68;;;4.63;;
34741;SDS011;20968;42.696;23.360;2023-03-23T13:07:39;6.60;;;4.18;;
34741;SDS011;20968;42.696;23.360;2023-03-23T13:10:23;5.40;;;4.20;;
34741;SDS011;20968;42.696;23.360;2023-03-23T13:12:52;5.72;;;3.95;;
34741;SDS011;20968;42.696;23.360;2023-03-23T13:15:44;5.68;;;4.32;;
34741;SDS011;20968;42.696;23.360;2023-03-23T13:23:28;9.25;;;4.28;;
34741;SDS011;20968;42.696;23.360;2023-03-23T13:26:03;6.40;;;3.38;;
34741;SDS011;20968;42.696;23.360;2023-03-23T13:28:33;7.57;;;4.47;;
34741;SDS011;20968;42.696;23.360;2023-03-23T13:31:14;4.93;;;3.90;;
34741;SDS011;20968;42.696;23.360;2023-03-23T13:33:50;4.97;;;3.60;;
34741;SDS011;20968;42.696;23.360;2023-03-23T13:36:25;5.38;;;3.65;;
34741;SDS011;20968;42.696;23.360;2023-03-23T13:38:59;3.85;;;3.45;;
34741;SDS011;20968;42.696;23.360;2023-03-23T13:41:44;4.07;;;3.53;;
34741;SDS011;20968;42.696;23.360;2023-03-23T13:50:43;19.50;;;6.80;;
34741;SDS011;20968;42.696;23.360;2023-03-23T14:06:34;6.90;;;3.60;;
34741;SDS011;20968;42.696;23.360;2023-03-23T14:09:22;6.30;;;3.55;;
34741;SDS011;20968;42.696;23.360;2023-03-23T14:12:02;5.05;;;3.42;;
34741;SDS011;20968;42.696;23.360;2023-03-23T14:14:55;7.70;;;3.67;;
34741;SDS011;20968;42.696;23.360;2023-03-23T14:17:27;13.02;;;4.47;;
34741;SDS011;20968;42.696;23.360;2023-03-23T14:19:55;8.63;;;4.70;;
34741;SDS011;20968;42.696;23.360;2023-03-23T14:22:40;5.93;;;4.35;;
34741;SDS011;20968;42.696;23.360;2023-03-23T14:25:13;5.30;;;3.85;;
34741;SDS011;20968;42.696;23.360;2023-03-23T14:27:41;3.80;;;3.13;;
34741;SDS011;20968;42.696;23.360;2023-03-23T14:30:08;4.68;;;3.58;;
34741;SDS011;20968;42.696;23.360;2023-03-23T14:32:39;8.07;;;4.53;;
34741;SDS011;20968;42.696;23.360;2023-03-23T14:35:12;5.20;;;3.90;;
34741;SDS011;20968;42.696;23.360;2023-03-23T14:37:42;4.97;;;3.50;;
34741;SDS011;20968;42.696;23.360;2023-03-23T14:40:11;4.32;;;3.45;;
34741;SDS011;20968;42.696;23.360;2023-03-23T14:42:40;5.45;;;3.75;;
34741;SDS011;20968;42.696;23.360;2023-03-23T14:45:07;7.03;;;4.00;;
34741;SDS011;20968;42.696;23.360;2023-03-23T14:47:40;7.95;;;4.63;;
34741;SDS011;20968;42.696;23.360;2023-03-23T14:53:02;8.07;;;4.43;;
34741;SDS011;20968;42.696;23.360;2023-03-23T14:55:36;5.70;;;3.53;;
34741;SDS011;20968;42.696;23.360;2023-03-23T14:58:08;6.45;;;4.03;;
34741;SDS011;20968;42.696;23.360;2023-03-23T15:00:40;4.65;;;3.58;;
34741;SDS011;20968;42.696;23.360;2023-03-23T15:03:12;5.80;;;4.03;;
34741;SDS011;20968;42.696;23.360;2023-03-23T15:05:42;6.28;;;4.00;;
34741;SDS011;20968;42.696;23.360;2023-03-23T15:08:20;6.97;;;4.10;;
34741;SDS011;20968;42.696;23.360;2023-03-23T15:13:26;5.47;;;4.15;;
34741;SDS011;20968;42.696;23.360;2023-03-23T15:15:52;9.60;;;4.90;;
34741;SDS011;20968;42.696;23.360;2023-03-23T15:18:34;9.07;;;5.38;;
34741;SDS011;20968;42.696;23.360;2023-03-23T15:21:18;5.38;;;4.40;;
34741;SDS011;20968;42.696;23.360;2023-03-23T15:23:47;6.05;;;4.57;;
34741;SDS011;20968;42.696;23.360;2023-03-23T15:26:21;5.93;;;4.25;;
34741;SDS011;20968;42.696;23.360;2023-03-23T15:28:47;5.80;;;4.22;;
34741;SDS011;20968;42.696;23.360;2023-03-23T15:31:13;6.45;;;5.18;;
34741;SDS011;20968;42.696;23.360;2023-03-23T15:33:39;4.43;;;3.90;;
34741;SDS011;20968;42.696;23.360;2023-03-23T15:36:14;6.53;;;3.92;;
34741;SDS011;20968;42.696;23.360;2023-03-23T15:38:45;10.85;;;4.18;;
34741;SDS011;20968;42.696;23.360;2023-03-23T15:41:25;4.78;;;3.63;;
34741;SDS011;20968;42.696;23.360;2023-03-23T15:43:53;8.27;;;4.70;;
34741;SDS011;20968;42.696;23.360;2023-03-23T15:46:24;6.68;;;4.07;;
34741;SDS011;20968;42.696;23.360;2023-03-23T15:51:24;7.68;;;4.88;;
34741;SDS011;20968;42.696;23.360;2023-03-23T15:53:52;8.32;;;5.07;;
34741;SDS011;20968;42.696;23.360;2023-03-23T15:56:20;7.50;;;5.25;;
34741;SDS011;20968;42.696;23.360;2023-03-23T15:58:46;9.48;;;5.57;;
34741;SDS011;20968;42.696;23.360;2023-03-23T16:01:25;9.45;;;5.63;;
34741;SDS011;20968;42.696;23.360;2023-03-23T16:06:20;9.13;;;5.82;;
34741;SDS011;20968;42.696;23.360;2023-03-23T16:08:48;8.25;;;4.88;;
34741;SDS011;20968;42.696;23.360;2023-03-23T16:11:14;9.20;;;5.07;;
34741;SDS011;20968;42.696;23.360;2023-03-23T16:13:42;10.52;;;5.00;;
34741;SDS011;20968;42.696;23.360;2023-03-23T16:16:28;12.90;;;6.07;;
34741;SDS011;20968;42.696;23.360;2023-03-23T16:18:56;8.13;;;5.15;;
34741;SDS011;20968;42.696;23.360;2023-03-23T16:21:22;11.10;;;5.78;;
34741;SDS011;20968;42.696;23.360;2023-03-23T16:23:47;12.15;;;6.90;;
34741;SDS011;20968;42.696;23.360;2023-03-23T16:26:13;11.30;;;6.60;;
34741;SDS011;20968;42.696;23.360;2023-03-23T16:28:42;14.05;;;9.25;;
34741;SDS011;20968;42.696;23.360;2023-03-23T16:31:08;22.70;;;13.68;;
34741;SDS011;20968;42.696;23.360;2023-03-23T16:33:36;22.10;;;8.55;;
34741;SDS011;20968;42.696;23.360;2023-03-23T16:36:02;11.95;;;7.88;;
34741;SDS011;20968;42.696;23.360;2023-03-23T16:38:28;9.85;;;6.65;;
34741;SDS011;20968;42.696;23.360;2023-03-23T16:40:53;15.10;;;7.60;;
34741;SDS011;20968;42.696;23.360;2023-03-23T16:43:19;16.50;;;8.23;;
34741;SDS011;20968;42.696;23.360;2023-03-23T16:45:45;11.95;;;6.88;;
34741;SDS011;20968;42.696;23.360;2023-03-23T16:48:12;17.15;;;8.15;;
34741;SDS011;20968;42.696;23.360;2023-03-23T16:50:40;9.23;;;6.25;;
34741;SDS011;20968;42.696;23.360;2023-03-23T16:53:06;12.50;;;8.02;;
34741;SDS011;20968;42.696;23.360;2023-03-23T16:55:32;14.52;;;8.07;;
34741;SDS011;20968;42.696;23.360;2023-03-23T16:57:59;12.85;;;8.00;;
34741;SDS011;20968;42.696;23.360;2023-03-23T17:00:25;18.98;;;7.85;;
34741;SDS011;20968;42.696;23.360;2023-03-23T17:02:52;11.43;;;7.43;;
34741;SDS011;20968;42.696;23.360;2023-03-23T17:05:21;15.50;;;7.22;;
34741;SDS011;20968;42.696;23.360;2023-03-23T17:07:53;12.93;;;9.05;;
34741;SDS011;20968;42.696;23.360;2023-03-23T17:10:23;10.45;;;6.75;;
34741;SDS011;20968;42.696;23.360;2023-03-23T17:12:51;11.98;;;7.43;;
34741;SDS011;20968;42.696;23.360;2023-03-23T17:15:17;20.75;;;8.32;;
34741;SDS011;20968;42.696;23.360;2023-03-23T17:17:43;18.50;;;9.05;;
34741;SDS011;20968;42.696;23.360;2023-03-23T17:20:08;26.25;;;12.52;;
34741;SDS011;20968;42.696;23.360;2023-03-23T17:22:35;31.33;;;13.32;;
34741;SDS011;20968;42.696;23.360;2023-03-23T17:25:01;19.85;;;10.18;;